Time;durP1;ratioP1;P1;durP2;ratioP2;P2;SDS_P1;SDS_P2;PMS_P1;PMS_P2;Temp;Humidity;BMP_temperature;BMP_pressure;BME280_temperature;BME280_humidity;BME280_pressure;Samples;Min_cycle;Max_cycle;Signal;HPM_P1;HPM_P2
2023/08/19 00:02:20;;;;;;;12.00;4.17;;;;;;;27.23;50.93;97340.25;5130706;27;20270;-72
2023/08/19 00:04:46;;;;;;;8.50;3.57;;;;;;;27.25;51.05;97341.66;5110262;27;20188;-75
2023/08/19 00:07:11;;;;;;;4.97;3.30;;;;;;;27.21;50.85;97339.72;5139046;27;20215;-74
2023/08/19 00:09:38;;;;;;;5.27;3.50;;;;;;;27.12;51.21;97348.25;5130195;27;20236;-74
2023/08/19 00:12:04;;;;;;;6.17;3.40;;;;;;;27.09;51.45;97337.22;5094897;27;20274;-74
2023/08/19 00:14:29;;;;;;;5.53;3.70;;;;;;;27.03;51.60;97332.88;5130086;27;20451;-75
2023/08/19 00:16:55;;;;;;;9.67;3.90;;;;;;;26.99;51.94;97335.22;5140581;27;20425;-74
2023/08/19 00:19:20;;;;;;;8.07;3.73;;;;;;;26.96;51.95;97338.44;5108740;27;20180;-74
2023/08/19 00:21:46;;;;;;;9.43;4.53;;;;;;;26.88;51.81;97334.34;5122245;27;20211;-75
2023/08/19 00:24:11;;;;;;;15.00;4.33;;;;;;;26.83;51.80;97340.50;5118228;27;20181;-74
2023/08/19 00:26:37;;;;;;;7.73;3.50;;;;;;;26.82;52.14;97338.88;5093861;27;20214;-73
2023/08/19 00:29:02;;;;;;;5.97;3.83;;;;;;;26.77;52.36;97329.91;5103046;28;20702;-74
2023/08/19 00:31:28;;;;;;;5.57;3.90;;;;;;;26.75;52.43;97332.03;5137392;27;20262;-74
2023/08/19 00:33:54;;;;;;;5.03;3.53;;;;;;;26.71;51.92;97330.91;5129252;27;20184;-73
2023/08/19 00:36:19;;;;;;;7.73;3.43;;;;;;;26.67;52.69;97336.00;5136440;27;20793;-73
2023/08/19 00:38:45;;;;;;;6.97;3.60;;;;;;;26.65;52.76;97327.38;5139386;27;20262;-74
2023/08/19 00:41:11;;;;;;;6.03;3.50;;;;;;;26.61;52.73;97331.63;5134466;27;20343;-74
2023/08/19 00:43:37;;;;;;;5.63;3.93;;;;;;;26.56;52.98;97329.69;5129023;27;20985;-73
2023/08/19 00:46:03;;;;;;;8.80;3.77;;;;;;;26.49;52.95;97335.25;5113045;27;20778;-74
2023/08/19 00:48:28;;;;;;;7.93;3.37;;;;;;;26.43;52.70;97332.78;5118585;27;20452;-75
2023/08/19 00:50:54;;;;;;;7.97;3.30;;;;;;;26.40;52.76;97344.03;5141043;27;20265;-72
2023/08/19 00:53:20;;;;;;;5.97;3.37;;;;;;;26.34;52.72;97340.47;5115455;27;20179;-74
2023/08/19 00:55:45;;;;;;;6.50;3.37;;;;;;;26.28;53.27;97344.16;5112453;27;20208;-75
2023/08/19 00:58:11;;;;;;;8.13;3.60;;;;;;;26.32;52.97;97334.56;5111218;28;20180;-75
2023/08/19 01:00:37;;;;;;;5.40;3.50;;;;;;;26.30;53.03;97347.41;5111452;28;20577;-74
2023/08/19 01:03:06;;;;;;;4.67;3.27;;;;;;;26.27;53.27;97347.91;5124169;27;20268;-72
2023/08/19 01:05:48;;;;;;;7.23;3.47;;;;;;;26.26;53.16;97340.91;5137891;27;21061;-73
2023/08/19 01:08:19;;;;;;;10.37;3.70;;;;;;;26.21;53.20;97344.34;5129111;27;21015;-75
2023/08/19 01:11:04;;;;;;;6.40;3.30;;;;;;;26.15;53.26;97340.78;5102761;27;20442;-73
2023/08/19 01:13:48;;;;;;;4.33;3.67;;;;;;;26.14;53.42;97333.00;5103937;28;20422;-75
2023/08/19 01:16:33;;;;;;;15.47;3.77;;;;;;;26.11;53.97;97339.66;5111079;28;20522;-74
2023/08/19 01:19:00;;;;;;;5.90;3.00;;;;;;;26.11;53.38;97330.81;5119870;27;20430;-74
2023/08/19 01:21:25;;;;;;;9.50;4.00;;;;;;;26.07;53.64;97335.84;5129383;27;20908;-75
2023/08/19 01:23:58;;;;;;;6.10;3.33;;;;;;;26.03;53.65;97337.38;5101506;27;20428;-74
2023/08/19 01:26:23;;;;;;;7.50;3.50;;;;;;;26.00;53.75;97332.50;5138066;27;20192;-73
2023/08/19 01:28:50;;;;;;;5.40;3.33;;;;;;;25.97;54.19;97330.31;5128627;27;20458;-72
2023/08/19 01:31:15;;;;;;;6.40;3.23;;;;;;;25.92;54.30;97326.53;5123802;27;20199;-73
2023/08/19 01:33:41;;;;;;;5.60;3.20;;;;;;;25.91;53.93;97327.59;5140817;27;20557;-73
2023/08/19 01:36:30;;;;;;;5.43;3.13;;;;;;;25.89;54.12;97332.38;5104344;28;20176;-73
2023/08/19 01:39:03;;;;;;;13.43;3.83;;;;;;;25.91;53.80;97327.59;5116901;27;20601;-74
2023/08/19 01:41:29;;;;;;;8.30;3.60;;;;;;;25.86;54.32;97322.13;5139771;27;20798;-75
2023/08/19 01:43:57;;;;;;;4.70;3.23;;;;;;;25.85;54.21;97328.56;5132649;27;20425;-74
2023/08/19 01:46:24;;;;;;;15.20;3.90;;;;;;;25.83;54.19;97324.50;5133420;27;20464;-75
2023/08/19 01:48:49;;;;;;;8.00;3.53;;;;;;;25.82;53.98;97334.44;5140450;27;20453;-74
2023/08/19 01:51:14;;;;;;;8.10;3.10;;;;;;;25.80;54.22;97330.38;5124906;27;20437;-74
2023/08/19 01:53:40;;;;;;;6.60;3.60;;;;;;;25.81;54.28;97340.88;5133055;27;20180;-74
2023/08/19 01:56:05;;;;;;;6.73;3.30;;;;;;;25.76;54.20;97338.09;5119251;27;20229;-74
2023/08/19 01:58:31;;;;;;;6.53;3.40;;;;;;;25.75;54.48;97336.47;5148851;27;20179;-74
2023/08/19 02:00:56;;;;;;;5.23;3.10;;;;;;;25.67;54.63;97342.28;5113474;27;20203;-74
2023/08/19 02:03:22;;;;;;;7.30;3.13;;;;;;;25.66;54.48;97338.78;5125780;27;20189;-74
2023/08/19 02:05:47;;;;;;;7.53;3.77;;;;;;;25.57;54.87;97335.72;5129192;27;20203;-74
2023/08/19 02:08:13;;;;;;;5.80;3.27;;;;;;;25.57;54.59;97333.03;5135252;27;20240;-74
2023/08/19 02:10:41;;;;;;;3.97;3.10;;;;;;;25.56;54.61;97334.09;5105795;27;20273;-74
2023/08/19 02:13:06;;;;;;;7.87;3.77;;;;;;;25.54;54.87;97336.22;5108327;27;20206;-74
2023/08/19 02:15:32;;;;;;;6.43;3.63;;;;;;;25.50;54.91;97329.69;5137979;27;20930;-74
2023/08/19 02:17:58;;;;;;;4.13;3.10;;;;;;;25.48;54.81;97333.69;5148284;27;20271;-76
2023/08/19 02:20:23;;;;;;;5.13;3.90;;;;;;;25.46;54.89;97341.97;5131992;27;20303;-74
2023/08/19 02:22:49;;;;;;;6.30;3.50;;;;;;;25.40;54.59;97337.56;5132121;27;20180;-74
2023/08/19 02:25:14;;;;;;;8.13;3.40;;;;;;;25.40;55.12;97340.25;5139587;27;20271;-74
2023/08/19 02:27:40;;;;;;;5.90;3.43;;;;;;;25.35;55.13;97343.66;5131975;27;20187;-73
2023/08/19 02:30:06;;;;;;;5.40;3.67;;;;;;;25.30;55.39;97341.72;5139325;27;20239;-74
2023/08/19 02:32:31;;;;;;;4.87;3.40;;;;;;;25.28;55.32;97338.47;5137497;27;20279;-73
2023/08/19 02:34:56;;;;;;;4.40;3.27;;;;;;;25.27;55.10;97336.00;5133103;27;20426;-72
2023/08/19 02:37:22;;;;;;;4.83;3.10;;;;;;;25.22;55.56;97339.44;5147964;27;20267;-73
2023/08/19 02:39:47;;;;;;;8.20;3.30;;;;;;;25.21;55.28;97337.81;5137715;27;20184;-75
2023/08/19 02:42:16;;;;;;;7.10;3.20;;;;;;;25.22;55.41;97339.44;5135909;27;20225;-73
2023/08/19 02:44:42;;;;;;;8.87;3.70;;;;;;;25.21;55.09;97337.00;5130431;27;20192;-73
2023/08/19 02:47:07;;;;;;;5.57;3.13;;;;;;;25.15;55.22;97328.88;5138637;27;20512;-74
2023/08/19 02:49:33;;;;;;;14.43;3.40;;;;;;;25.13;55.60;97335.53;5137298;27;20555;-74
2023/08/19 02:51:58;;;;;;;4.60;3.40;;;;;;;25.10;55.67;97330.66;5125285;27;20235;-74
2023/08/19 02:54:23;;;;;;;5.67;3.60;;;;;;;25.10;55.63;97339.53;5121258;27;20224;-70
2023/08/19 02:56:49;;;;;;;7.00;3.10;;;;;;;25.12;55.26;97339.28;5140114;27;20180;-73
2023/08/19 02:59:14;;;;;;;4.47;3.33;;;;;;;25.10;55.71;97344.88;5129685;27;20289;-75
2023/08/19 03:01:40;;;;;;;10.30;3.50;;;;;;;25.14;55.06;97342.53;5137176;27;20204;-73
2023/08/19 03:04:05;;;;;;;3.13;2.73;;;;;;;25.11;55.11;97340.31;5131129;27;20607;-74
2023/08/19 03:06:33;;;;;;;7.07;3.33;;;;;;;25.07;55.16;97345.38;5136657;27;20191;-74
2023/08/19 03:08:58;;;;;;;4.97;2.90;;;;;;;25.02;55.50;97349.81;5131910;27;20208;-74
2023/08/19 03:11:23;;;;;;;5.90;3.47;;;;;;;24.99;55.45;97346.56;5143441;27;20448;-71
2023/08/19 03:13:49;;;;;;;5.00;2.97;;;;;;;25.00;55.36;97348.19;5152262;27;20183;-74
2023/08/19 03:16:16;;;;;;;3.70;3.40;;;;;;;24.96;55.74;97349.72;5101216;27;20188;-73
2023/08/19 03:18:41;;;;;;;4.70;3.23;;;;;;;24.99;55.18;97351.13;5121655;27;20263;-74
2023/08/19 03:21:07;;;;;;;6.97;3.33;;;;;;;24.98;55.15;97350.31;5129689;27;20537;-73
2023/08/19 03:23:32;;;;;;;4.70;2.90;;;;;;;24.99;55.26;97348.44;5119084;27;20267;-73
2023/08/19 03:25:58;;;;;;;10.60;3.37;;;;;;;24.99;55.17;97351.13;5129665;27;20237;-73
2023/08/19 03:28:24;;;;;;;13.47;3.33;;;;;;;24.95;55.34;97342.75;5128597;27;20236;-73
2023/08/19 03:30:50;;;;;;;30.20;3.87;;;;;;;24.95;55.34;97336.59;5119669;27;20529;-74
2023/08/19 03:33:15;;;;;;;6.57;3.13;;;;;;;24.94;55.37;97343.00;5141493;27;20387;-74
2023/08/19 03:35:40;;;;;;;8.03;3.10;;;;;;;24.90;55.01;97345.34;5135440;27;20199;-75
2023/08/19 03:38:06;;;;;;;5.40;3.43;;;;;;;24.89;55.12;97340.25;5129238;27;20267;-74
2023/08/19 03:40:32;;;;;;;7.13;3.50;;;;;;;24.84;55.18;97346.31;5124814;27;20200;-73
2023/08/19 03:42:57;;;;;;;3.53;2.90;;;;;;;24.79;55.61;97347.03;5134842;27;20970;-74
2023/08/19 03:45:23;;;;;;;4.60;2.73;;;;;;;24.76;55.67;97344.03;5138316;27;20274;-75
2023/08/19 03:47:48;;;;;;;5.20;3.30;;;;;;;24.74;55.38;97348.81;5121967;27;20205;-74
2023/08/19 03:50:14;;;;;;;3.80;3.00;;;;;;;24.69;55.92;97347.69;5128421;27;21898;-74
2023/08/19 03:52:39;;;;;;;5.90;3.03;;;;;;;24.68;55.93;97350.53;5123375;27;20594;-75
2023/08/19 03:55:06;;;;;;;5.50;3.30;;;;;;;24.61;55.90;97342.66;5126611;27;20271;-75
2023/08/19 03:57:31;;;;;;;11.73;3.30;;;;;;;24.61;56.20;97347.22;5134022;27;20656;-74
2023/08/19 03:59:57;;;;;;;3.87;2.80;;;;;;;24.58;55.81;97343.13;5130694;27;20428;-74
2023/08/19 04:02:22;;;;;;;8.90;3.60;;;;;;;24.59;55.70;97342.06;5114315;27;20260;-74
2023/08/19 04:05:04;;;;;;;4.43;2.90;;;;;;;24.57;55.90;97338.03;5127157;27;20186;-75
2023/08/19 04:07:30;;;;;;;6.93;3.33;;;;;;;24.56;55.83;97345.25;5117587;27;20199;-74
2023/08/19 04:09:56;;;;;;;9.80;3.20;;;;;;;24.57;56.16;97352.25;5123143;27;20418;-74
2023/08/19 04:12:25;;;;;;;12.93;3.87;;;;;;;24.56;56.30;97341.75;5121316;27;20503;-73
2023/08/19 04:14:51;;;;;;;3.73;3.33;;;;;;;24.54;56.21;97350.03;5102845;27;20480;-74
2023/08/19 04:17:18;;;;;;;5.67;3.13;;;;;;;24.51;56.33;97350.50;5134372;27;20959;-74
2023/08/19 04:19:44;;;;;;;6.67;3.33;;;;;;;24.50;55.96;97352.38;5129531;27;20418;-72
2023/08/19 04:22:14;;;;;;;6.87;3.27;;;;;;;24.43;56.24;97354.38;5100886;27;20438;-74
2023/08/19 04:24:39;;;;;;;13.07;3.70;;;;;;;24.46;56.30;97353.06;5129908;27;20759;-72
2023/08/19 04:27:05;;;;;;;7.97;3.43;;;;;;;24.46;56.07;97353.06;5127001;27;20452;-74
2023/08/19 04:29:32;;;;;;;3.83;3.10;;;;;;;24.42;55.74;97362.66;5120893;27;20308;-74
2023/08/19 04:31:59;;;;;;;6.23;3.40;;;;;;;24.42;55.77;97354.63;5140122;27;20263;-74
2023/08/19 04:34:25;;;;;;;7.00;2.90;;;;;;;24.39;56.07;97359.41;5114778;27;20472;-74
2023/08/19 04:36:50;;;;;;;3.87;3.37;;;;;;;24.37;56.19;97358.81;5117673;27;20452;-75
2023/08/19 04:39:16;;;;;;;4.60;3.30;;;;;;;24.39;55.87;97361.25;5126484;27;20204;-75
2023/08/19 04:41:41;;;;;;;9.83;3.73;;;;;;;24.41;56.32;97361.03;5145534;27;20192;-74
2023/08/19 04:44:07;;;;;;;10.93;3.30;;;;;;;24.41;56.39;97363.72;5160959;27;20180;-74
2023/08/19 04:46:32;;;;;;;14.90;3.60;;;;;;;24.42;56.49;97368.00;5142973;27;20196;-74
2023/08/19 04:48:58;;;;;;;4.60;3.10;;;;;;;24.44;56.47;97360.56;5117108;28;20294;-73
2023/08/19 04:51:23;;;;;;;10.23;4.00;;;;;;;24.44;56.07;97366.72;5103781;27;20204;-74
2023/08/19 04:53:49;;;;;;;10.30;3.40;;;;;;;24.46;56.32;97359.25;5108730;27;20271;-75
2023/08/19 04:56:14;;;;;;;4.67;3.00;;;;;;;24.50;55.78;97359.59;5120919;27;20202;-73
2023/08/19 04:58:39;;;;;;;3.23;2.93;;;;;;;24.56;55.69;97365.84;5125086;27;20461;-73
2023/08/19 05:01:05;;;;;;;4.70;3.50;;;;;;;24.60;55.22;97365.13;5137700;27;20199;-73
2023/08/19 05:03:31;;;;;;;12.67;3.70;;;;;;;24.62;55.38;97371.06;5139154;27;20188;-72
2023/08/19 05:05:56;;;;;;;5.27;3.27;;;;;;;24.60;55.44;97373.16;5136529;27;20468;-73
2023/08/19 05:08:22;;;;;;;6.77;3.40;;;;;;;24.64;55.50;97368.97;5132247;27;20311;-74
2023/08/19 05:10:47;;;;;;;9.43;3.13;;;;;;;24.63;54.89;97378.06;5110492;28;20287;-74
2023/08/19 05:13:13;;;;;;;6.03;3.20;;;;;;;24.67;54.29;97376.53;5136355;27;20240;-73
2023/08/19 05:15:38;;;;;;;6.93;3.13;;;;;;;24.74;54.90;97380.97;5108749;28;20200;-73
2023/08/19 05:18:04;;;;;;;8.10;3.40;;;;;;;24.82;54.96;97385.94;5138211;27;20238;-73
2023/08/19 05:20:30;;;;;;;10.20;3.50;;;;;;;24.83;55.30;97379.50;5136311;27;20699;-73
2023/08/19 05:22:55;;;;;;;6.17;3.53;;;;;;;24.84;55.90;97386.50;5153798;27;20460;-73
2023/08/19 05:25:21;;;;;;;6.60;3.53;;;;;;;24.93;55.46;97378.88;5131949;27;20198;-73
2023/08/19 05:27:46;;;;;;;5.90;3.30;;;;;;;24.95;55.62;97382.94;5138713;27;20195;-74
2023/08/19 05:30:12;;;;;;;4.37;3.50;;;;;;;24.99;55.71;97384.09;5135937;27;20287;-74
2023/08/19 05:32:38;;;;;;;6.57;3.50;;;;;;;25.06;56.11;97385.84;5130043;27;20187;-73
2023/08/19 05:35:04;;;;;;;5.20;3.03;;;;;;;25.09;55.94;97388.84;5133087;27;20187;-74
2023/08/19 05:37:29;;;;;;;6.50;3.37;;;;;;;25.13;55.00;97389.16;5131516;27;20522;-74
2023/08/19 05:39:55;;;;;;;8.87;3.17;;;;;;;25.12;54.34;97382.16;5146766;27;20653;-73
2023/08/19 05:42:20;;;;;;;3.40;2.80;;;;;;;25.08;53.86;97381.84;5135405;27;20287;-75
2023/08/19 05:44:46;;;;;;;12.93;3.27;;;;;;;25.20;53.66;97392.50;5138703;27;20215;-73
2023/08/19 05:47:11;;;;;;;4.70;3.30;;;;;;;25.27;53.69;97385.13;5117916;27;20225;-74
2023/08/19 05:49:36;;;;;;;10.83;3.40;;;;;;;25.39;53.55;97386.91;5108648;28;20209;-74
2023/08/19 05:52:02;;;;;;;8.07;3.13;;;;;;;25.51;53.36;97386.88;5137006;27;20238;-74
2023/08/19 05:54:28;;;;;;;4.33;3.40;;;;;;;25.59;53.10;97389.13;5137636;27;20185;-73
2023/08/19 05:56:53;;;;;;;6.13;3.43;;;;;;;25.69;53.83;97391.16;5130208;27;20177;-75
2023/08/19 05:59:18;;;;;;;7.93;3.30;;;;;;;25.80;53.55;97392.94;5142445;27;20188;-74
2023/08/19 06:01:44;;;;;;;8.07;3.53;;;;;;;25.92;53.55;97392.81;5138776;27;20594;-74
2023/08/19 06:04:09;;;;;;;5.20;3.30;;;;;;;26.03;52.80;97408.00;5131541;27;21142;-74
2023/08/19 06:06:35;;;;;;;6.30;3.43;;;;;;;26.16;52.74;97396.13;5135441;27;20468;-74
2023/08/19 06:09:00;;;;;;;8.60;3.30;;;;;;;26.32;52.20;97410.56;5133019;27;20257;-74
2023/08/19 06:11:26;;;;;;;9.57;3.80;;;;;;;26.47;52.15;97406.44;5130635;27;20723;-74
2023/08/19 06:13:52;;;;;;;9.80;3.77;;;;;;;26.66;51.88;97404.25;5138314;27;20196;-73
2023/08/19 06:16:18;;;;;;;12.10;4.10;;;;;;;26.84;51.39;97403.13;5132616;27;20175;-73
2023/08/19 06:18:43;;;;;;;8.67;3.00;;;;;;;27.04;51.14;97407.06;5135830;27;20423;-74
2023/08/19 06:21:09;;;;;;;11.47;3.37;;;;;;;27.22;50.60;97405.91;5138769;27;20227;-74
2023/08/19 06:23:34;;;;;;;9.97;3.30;;;;;;;27.33;49.10;97404.94;5126171;27;20248;-74
2023/08/19 06:26:00;;;;;;;7.90;3.17;;;;;;;27.47;48.74;97405.34;5116564;27;20190;-72
2023/08/19 06:28:25;;;;;;;10.77;3.73;;;;;;;27.66;48.52;97413.03;5132028;27;20218;-74
2023/08/19 06:30:51;;;;;;;11.93;4.03;;;;;;;27.80;47.23;97418.75;5131050;27;20276;-73
2023/08/19 06:33:17;;;;;;;11.97;3.80;;;;;;;27.97;47.76;97427.50;5139747;27;20659;-74
2023/08/19 06:35:48;;;;;;;7.07;4.20;;;;;;;28.13;47.69;97422.19;5144797;27;20209;-74
2023/08/19 06:38:29;;;;;;;7.13;3.57;;;;;;;28.28;47.18;97422.28;5136396;27;20441;-73
2023/08/19 06:41:00;;;;;;;10.80;3.20;;;;;;;28.45;47.38;97429.38;5120697;27;20477;-75
2023/08/19 06:43:26;;;;;;;6.20;3.83;;;;;;;28.60;47.17;97429.44;5121176;27;20417;-74
2023/08/19 06:45:54;;;;;;;8.70;3.37;;;;;;;28.66;45.91;97431.06;5110811;27;20421;-74
2023/08/19 06:48:21;;;;;;;11.53;3.53;;;;;;;28.58;45.40;97428.91;5150314;27;20464;-73
2023/08/19 06:50:47;;;;;;;6.93;3.80;;;;;;;28.63;45.10;97441.56;5112404;27;20508;-73
2023/08/19 06:53:13;;;;;;;10.03;3.60;;;;;;;28.81;45.21;97435.72;5128901;27;20460;-73
2023/08/19 06:55:40;;;;;;;10.00;3.90;;;;;;;28.93;45.04;97443.59;5140709;27;20204;-74
2023/08/19 06:58:08;;;;;;;8.93;3.50;;;;;;;29.10;44.12;97442.56;5104253;27;20176;-73
2023/08/19 07:00:34;;;;;;;9.20;3.40;;;;;;;29.23;43.50;97442.03;5114237;27;20534;-74
2023/08/19 07:03:00;;;;;;;9.13;3.40;;;;;;;29.39;43.70;97433.97;5130958;27;20853;-73
2023/08/19 07:05:29;;;;;;;5.00;3.17;;;;;;;29.50;43.40;97446.38;5122315;27;20192;-74
2023/08/19 07:07:57;;;;;;;6.43;3.27;;;;;;;29.63;42.82;97441.50;5120649;27;20538;-73
2023/08/19 07:10:23;;;;;;;14.70;3.30;;;;;;;29.72;42.33;97442.59;5133143;27;20445;-73
2023/08/19 07:12:48;;;;;;;4.77;3.13;;;;;;;29.81;41.75;97440.16;5143792;27;21028;-74
2023/08/19 07:15:14;;;;;;;11.50;3.90;;;;;;;29.91;41.24;97445.56;5139878;27;20421;-75
2023/08/19 07:17:45;;;;;;;12.97;3.43;;;;;;;30.06;40.55;97439.34;5118730;27;20683;-74
2023/08/19 07:20:14;;;;;;;9.43;3.90;;;;;;;30.08;41.31;97445.28;5123178;27;20458;-75
2023/08/19 07:22:42;;;;;;;7.37;3.63;;;;;;;30.28;40.49;97447.13;5141892;27;20425;-74
2023/08/19 07:25:08;;;;;;;6.27;3.50;;;;;;;30.30;40.17;97446.84;5119881;27;20930;-74
2023/08/19 07:27:34;;;;;;;7.90;3.60;;;;;;;30.47;40.42;97446.50;5130031;27;20457;-74
2023/08/19 07:30:02;;;;;;;17.20;3.40;;;;;;;30.63;40.28;97444.56;5126917;27;21111;-74
2023/08/19 07:32:27;;;;;;;6.37;3.23;;;;;;;30.75;39.98;97457.78;5140274;27;20462;-74
2023/08/19 07:34:53;;;;;;;8.60;3.50;;;;;;;30.90;40.43;97460.41;5107995;27;20423;-73
2023/08/19 07:37:19;;;;;;;9.83;3.53;;;;;;;30.92;39.69;97462.81;5127093;27;20219;-74
2023/08/19 07:39:45;;;;;;;8.67;3.50;;;;;;;31.07;39.29;97457.34;5144445;27;20448;-73
2023/08/19 07:42:10;;;;;;;7.40;3.30;;;;;;;31.26;39.50;97456.69;5136965;27;20208;-74
2023/08/19 07:44:36;;;;;;;9.07;3.00;;;;;;;31.48;39.14;97463.59;5119882;27;20638;-73
2023/08/19 07:47:01;;;;;;;5.77;3.17;;;;;;;31.51;38.08;97457.59;5132653;27;20184;-73
2023/08/19 07:49:26;;;;;;;9.70;3.47;;;;;;;31.61;38.09;97465.66;5139747;27;20223;-75
2023/08/19 07:51:52;;;;;;;8.53;3.80;;;;;;;31.74;38.12;97466.13;5137058;27;20226;-73
2023/08/19 07:54:21;;;;;;;6.00;3.43;;;;;;;31.97;38.03;97462.66;5145533;27;20182;-74
2023/08/19 07:56:47;;;;;;;4.17;3.10;;;;;;;32.15;37.56;97463.81;5121622;27;20274;-74
2023/08/19 07:59:12;;;;;;;7.80;3.40;;;;;;;32.36;37.14;97468.25;5127871;27;20509;-73
2023/08/19 08:01:38;;;;;;;7.20;3.47;;;;;;;32.56;37.12;97462.56;5128525;27;20204;-73
2023/08/19 08:04:04;;;;;;;6.50;3.67;;;;;;;32.73;36.37;97464.81;5121828;27;20268;-74
2023/08/19 08:06:29;;;;;;;10.50;3.20;;;;;;;32.95;36.11;97471.63;5137827;27;20200;-74
2023/08/19 08:08:55;;;;;;;6.00;3.43;;;;;;;33.13;35.98;97472.72;5134387;27;20462;-73
2023/08/19 08:11:20;;;;;;;7.07;3.10;;;;;;;33.33;36.10;97473.50;5131078;27;20212;-73
2023/08/19 08:13:45;;;;;;;5.93;3.60;;;;;;;33.49;35.68;97477.63;5120852;27;20271;-74
2023/08/19 08:16:11;;;;;;;7.83;2.97;;;;;;;33.66;35.82;97473.56;5116243;27;20211;-73
2023/08/19 08:18:37;;;;;;;11.00;3.03;;;;;;;33.83;35.58;97475.75;5133477;27;20203;-73
2023/08/19 08:21:02;;;;;;;10.63;3.60;;;;;;;33.96;34.94;97476.88;5117588;27;20208;-74
2023/08/19 08:23:28;;;;;;;7.13;3.60;;;;;;;34.07;35.19;97469.38;5146215;27;20215;-73
2023/08/19 08:25:53;;;;;;;5.27;2.60;;;;;;;34.24;34.78;97468.78;5131421;27;20183;-74
2023/08/19 08:28:18;;;;;;;9.80;3.23;;;;;;;34.39;33.61;97462.22;5120550;27;20215;-74
2023/08/19 08:30:44;;;;;;;4.60;3.30;;;;;;;34.54;33.12;97464.69;5132656;27;20290;-73
2023/08/19 08:33:09;;;;;;;3.60;2.70;;;;;;;34.51;32.23;97476.16;5141519;27;20194;-74
2023/08/19 08:35:35;;;;;;;7.87;3.13;;;;;;;34.62;32.16;97465.88;5129976;27;20600;-74
2023/08/19 08:38:00;;;;;;;8.90;3.03;;;;;;;34.76;32.16;97463.94;5130300;27;20266;-74
2023/08/19 08:40:26;;;;;;;7.07;2.90;;;;;;;34.62;31.34;97471.31;5117818;27;20208;-74
2023/08/19 08:42:52;;;;;;;11.57;3.20;;;;;;;34.82;30.94;97463.81;5130300;27;20196;-73
2023/08/19 08:45:18;;;;;;;7.60;2.67;;;;;;;34.99;31.25;97458.59;5115768;27;20184;-74
2023/08/19 08:47:44;;;;;;;8.77;3.40;;;;;;;35.15;31.19;97464.47;5143602;27;20223;-73
2023/08/19 08:50:09;;;;;;;12.03;2.93;;;;;;;35.37;31.11;97452.00;5131964;27;20435;-74
2023/08/19 08:52:35;;;;;;;8.03;3.30;;;;;;;35.39;30.59;97457.16;5141300;27;20195;-72
2023/08/19 08:55:02;;;;;;;9.20;3.40;;;;;;;35.43;30.67;97456.25;5109434;27;20194;-73
2023/08/19 08:57:27;;;;;;;11.90;3.40;;;;;;;35.39;30.33;97460.66;5155798;27;20182;-75
2023/08/19 08:59:54;;;;;;;6.70;2.80;;;;;;;35.58;30.64;97457.00;5123965;27;20877;-72
2023/08/19 09:02:19;;;;;;;4.83;2.80;;;;;;;35.78;30.81;97459.19;5131061;27;20184;-74
2023/08/19 09:04:46;;;;;;;8.03;3.40;;;;;;;36.04;30.41;97463.22;5117744;27;20428;-74
2023/08/19 09:07:28;;;;;;;7.53;3.40;;;;;;;36.26;30.38;97463.13;5136250;27;20236;-74
2023/08/19 09:09:54;;;;;;;7.73;3.03;;;;;;;36.43;29.64;97461.59;5117613;27;20461;-73
2023/08/19 09:12:20;;;;;;;6.83;2.87;;;;;;;36.62;29.60;97461.34;5132544;27;20613;-74
2023/08/19 09:14:47;;;;;;;6.73;2.80;;;;;;;36.79;29.81;97463.31;5145227;27;20222;-75
2023/08/19 09:17:14;;;;;;;8.87;3.10;;;;;;;36.81;29.06;97463.78;5120093;27;20449;-74
2023/08/19 09:19:40;;;;;;;6.13;2.97;;;;;;;37.03;29.31;97462.09;5144964;27;20931;-74
2023/08/19 09:22:32;;;;;;;9.90;3.20;;;;;;;37.05;28.92;97468.03;5123336;27;20436;-73
2023/08/19 09:24:58;;;;;;;11.00;2.90;;;;;;;37.22;28.18;97467.22;5119715;27;20950;-75
2023/08/19 09:27:28;;;;;;;6.77;3.07;;;;;;;37.22;28.01;97459.03;5144301;27;20456;-75
2023/08/19 09:29:53;;;;;;;4.13;2.57;;;;;;;37.40;28.68;97468.06;5121095;27;20214;-76
2023/08/19 09:32:32;;;;;;;6.53;2.90;;;;;;;37.53;28.41;97462.75;5145727;27;20429;-74
2023/08/19 09:35:02;;;;;;;7.53;2.83;;;;;;;37.72;28.34;97463.16;5136518;27;20191;-75
2023/08/19 09:37:30;;;;;;;9.40;3.50;;;;;;;37.92;28.21;97461.69;5136244;27;20536;-73
2023/08/19 09:39:55;;;;;;;8.73;2.73;;;;;;;38.11;28.09;97466.78;5131920;27;20954;-74
2023/08/19 09:42:21;;;;;;;7.67;2.57;;;;;;;38.29;28.01;97469.47;5117891;27;20422;-75
2023/08/19 09:44:46;;;;;;;9.93;3.20;;;;;;;38.37;27.22;97465.09;5126010;27;20186;-74
2023/08/19 09:47:12;;;;;;;9.27;3.37;;;;;;;38.44;26.43;97462.66;5142091;27;20245;-74
2023/08/19 09:49:37;;;;;;;6.43;2.97;;;;;;;38.55;26.73;97460.34;5135004;27;20199;-74
2023/08/19 09:52:03;;;;;;;9.57;3.70;;;;;;;38.70;26.64;97461.69;5139959;27;20222;-75
2023/08/19 09:54:28;;;;;;;8.23;3.03;;;;;;;38.85;26.60;97465.81;5121752;27;20194;-75
2023/08/19 09:56:55;;;;;;;7.90;2.70;;;;;;;39.05;26.38;97461.47;5127210;27;20190;-75
2023/08/19 09:59:24;;;;;;;8.50;2.73;;;;;;;39.21;26.11;97469.09;5129653;27;20554;-76
2023/08/19 10:01:51;;;;;;;8.93;3.20;;;;;;;39.22;25.44;97459.75;5106295;27;20828;-74
2023/08/19 10:04:18;;;;;;;11.80;3.20;;;;;;;39.37;26.16;97461.91;5109850;27;20421;-75
2023/08/19 10:06:47;;;;;;;7.60;3.03;;;;;;;39.04;25.66;97470.81;5132474;27;20524;-74
2023/08/19 10:09:15;;;;;;;5.80;2.70;;;;;;;39.29;25.97;97468.22;5136331;27;20333;-74
2023/08/19 10:11:43;;;;;;;7.90;2.87;;;;;;;39.52;25.57;97467.84;5127631;27;20527;-74
2023/08/19 10:14:08;;;;;;;5.47;2.80;;;;;;;39.68;25.32;97462.56;5126554;27;20457;-74
2023/08/19 10:16:38;;;;;;;4.10;2.60;;;;;;;39.88;25.14;97466.41;5136440;27;20625;-74
2023/08/19 10:19:04;;;;;;;6.15;2.60;;;;;;;39.97;24.43;97463.53;5114018;27;20623;-74
2023/08/19 10:21:30;;;;;;;4.70;2.73;;;;;;;40.04;24.50;97463.81;5105951;28;20220;-75
2023/08/19 10:23:57;;;;;;;11.07;2.92;;;;;;;40.11;24.15;97466.78;5123874;27;20684;-74
2023/08/19 10:26:22;;;;;;;12.80;2.95;;;;;;;40.31;25.24;97467.06;5083527;28;20193;-75
2023/08/19 10:29:06;;;;;;;6.55;2.75;;;;;;;40.43;24.22;97468.97;5093996;27;20256;-76
2023/08/19 10:31:32;;;;;;;5.28;2.85;;;;;;;40.56;24.13;97467.84;5132075;27;20230;-75
2023/08/19 10:33:58;;;;;;;4.75;2.60;;;;;;;40.47;23.53;97467.94;5127191;27;20196;-74
2023/08/19 10:36:30;;;;;;;8.27;2.70;;;;;;;40.51;22.52;97468.88;5118364;27;20188;-74
2023/08/19 10:39:00;;;;;;;5.45;2.70;;;;;;;40.53;22.72;97463.03;5124425;27;20543;-75
2023/08/19 10:41:26;;;;;;;5.53;2.55;;;;;;;40.64;22.48;97455.16;5139713;27;20211;-74
2023/08/19 10:44:11;;;;;;;4.07;2.70;;;;;;;40.65;23.33;97452.06;5123419;27;20195;-75
2023/08/19 10:46:40;;;;;;;5.72;2.45;;;;;;;40.59;22.51;97463.59;5124663;27;20245;-75
2023/08/19 10:49:14;;;;;;;9.63;2.72;;;;;;;40.54;22.32;97457.22;5107956;27;20374;-75
2023/08/19 10:51:48;;;;;;;7.65;2.45;;;;;;;40.66;22.24;97453.66;5125623;27;20214;-76
2023/08/19 10:54:15;;;;;;;7.82;2.50;;;;;;;40.86;22.82;97451.13;5133150;27;20201;-74
2023/08/19 10:56:52;;;;;;;5.75;2.78;;;;;;;41.08;22.12;97449.84;5126055;27;20187;-76
2023/08/19 10:59:20;;;;;;;9.35;2.33;;;;;;;40.82;21.36;97448.28;5111665;27;20206;-75
2023/08/19 11:01:45;;;;;;;9.00;3.03;;;;;;;40.26;21.38;97453.56;5109920;27;20199;-75
2023/08/19 11:04:11;;;;;;;4.55;2.75;;;;;;;40.45;21.63;97451.06;5084617;28;20545;-75
2023/08/19 11:06:38;;;;;;;10.13;2.85;;;;;;;40.51;21.36;97454.34;5092744;28;20184;-74
2023/08/19 11:09:03;;;;;;;16.63;2.50;;;;;;;40.52;21.82;97451.25;5106963;27;20703;-75
2023/08/19 11:11:31;;;;;;;6.97;3.00;;;;;;;40.74;21.88;97440.94;5132593;27;20289;-73
2023/08/19 11:13:56;;;;;;;7.45;2.65;;;;;;;40.75;20.62;97453.53;5121894;27;20359;-75
2023/08/19 11:16:28;;;;;;;10.02;2.85;;;;;;;40.79;21.12;97440.72;5125204;27;20716;-75
2023/08/19 11:18:56;;;;;;;7.18;2.78;;;;;;;41.08;21.53;97449.84;5120327;27;20652;-75
2023/08/19 11:21:24;;;;;;;4.30;3.05;;;;;;;41.28;20.80;97449.97;5121867;27;20237;-75
2023/08/19 11:23:50;;;;;;;7.20;2.50;;;;;;;41.48;20.48;97430.88;5124868;27;20183;-74
2023/08/19 11:26:16;;;;;;;6.72;2.50;;;;;;;41.64;20.66;97439.19;5140557;27;20699;-74
2023/08/19 11:28:41;;;;;;;5.72;2.60;;;;;;;41.54;20.52;97443.25;5115911;27;20311;-75
2023/08/19 11:31:07;;;;;;;13.63;2.53;;;;;;;41.68;20.34;97440.88;5130352;27;20204;-75